createdAt,value
2023-02-08T00:01:24.197Z,103304.19
2023-02-08T00:03:52.666Z,103305.94
2023-02-08T00:06:21.363Z,103297.09
2023-02-08T00:08:49.445Z,103306.84
2023-02-08T00:11:17.461Z,103291.78
2023-02-08T00:13:46.985Z,103292.69
2023-02-08T00:16:15.548Z,103286.56
2023-02-08T00:18:43.716Z,103287.47
2023-02-08T00:21:13.429Z,103288.44
2023-02-08T00:23:42.062Z,103285.94
2023-02-08T00:26:10.973Z,103281.63
2023-02-08T00:28:39.407Z,103279.94
2023-02-08T00:31:10.456Z,103281.78
2023-02-08T00:33:38.813Z,103276.56
2023-02-08T00:36:09.014Z,103275.66
2023-02-08T00:38:37.251Z,103272.13
2023-02-08T00:41:06.202Z,103269.44
2023-02-08T00:43:34.579Z,103261.53
2023-02-08T00:46:02.655Z,103262.41
2023-02-08T00:48:33.305Z,103254.44
2023-02-08T00:51:03.277Z,103254.44
2023-02-08T00:53:31.338Z,103251.69
2023-02-08T00:55:59.463Z,103239.41
2023-02-08T00:58:27.772Z,103235.88
2023-02-08T01:00:56.225Z,103236.75
2023-02-08T01:03:25.660Z,103239.44
2023-02-08T01:05:56.022Z,103234.19
2023-02-08T01:08:24.057Z,103236.88
2023-02-08T01:10:52.126Z,103218.34
2023-02-08T01:13:20.585Z,103224.56
2023-02-08T01:15:49.006Z,103218.44
2023-02-08T01:18:17.073Z,103209.66
2023-02-08T01:20:45.064Z,103209.66
2023-02-08T01:23:14.501Z,103209.66
2023-02-08T01:25:42.692Z,103202.63
2023-02-08T01:28:10.810Z,103200.00
2023-02-08T01:30:39.413Z,103198.31
2023-02-08T01:33:07.575Z,103206.25
2023-02-08T01:35:35.560Z,103205.41
2023-02-08T01:38:03.617Z,103210.72
2023-02-08T01:40:33.253Z,103207.19
2023-02-08T01:43:01.560Z,103208.13
2023-02-08T01:45:31.693Z,103210.91
2023-02-08T01:48:06.837Z,103204.81
2023-02-08T01:50:43.821Z,103201.38
2023-02-08T01:53:12.650Z,103200.59
2023-02-08T01:55:49.207Z,103211.28
2023-02-08T01:58:20.397Z,103210.41
2023-02-08T02:00:49.292Z,103199.88
2023-02-08T02:03:18.863Z,103206.91
2023-02-08T02:05:49.411Z,103200.78
2023-02-08T02:08:17.612Z,103196.44
2023-02-08T02:10:50.528Z,103194.69
2023-02-08T02:13:20.970Z,103187.75
2023-02-08T02:15:50.297Z,103198.38
2023-02-08T02:18:24.424Z,103186.13
2023-02-08T02:21:14.896Z,103193.25
2023-02-08T02:24:06.943Z,103177.41
2023-02-08T02:27:05.447Z,103162.50
2023-02-08T02:30:17.294Z,103160.75
2023-02-08T02:33:01.299Z,103156.47
2023-02-08T02:35:36.585Z,103163.47
2023-02-08T02:38:11.706Z,103167.91
2023-02-08T02:40:51.572Z,103160.84
2023-02-08T02:43:42.568Z,103156.38
2023-02-08T02:46:23.684Z,103169.53
2023-02-08T02:49:01.359Z,103174.84
2023-02-08T02:51:37.040Z,103166.88
2023-02-08T02:54:09.861Z,103158.06
2023-02-08T02:56:42.882Z,103154.59
2023-02-08T02:59:13.519Z,103148.44
2023-02-08T03:01:43.341Z,103149.28
2023-02-08T03:04:17.322Z,103134.34
2023-02-08T03:07:03.345Z,103144.13
2023-02-08T03:09:53.140Z,103142.34
2023-02-08T03:12:36.881Z,103141.50
2023-02-08T03:15:14.562Z,103151.19
2023-02-08T03:17:56.444Z,103150.34
2023-02-08T03:20:29.160Z,103139.81
2023-02-08T03:23:03.892Z,103140.66
2023-02-08T03:25:37.856Z,103137.13
2023-02-08T03:28:09.879Z,103138.00
2023-02-08T03:30:48.527Z,103135.41
2023-02-08T03:33:22.104Z,103131.94
2023-02-08T03:35:57.528Z,103134.66
2023-02-08T03:38:30.860Z,103125.00
2023-02-08T03:41:02.705Z,103128.63
2023-02-08T03:43:34.660Z,103121.63
2023-02-08T03:46:11.112Z,103131.34
2023-02-08T03:48:42.751Z,103129.56
2023-02-08T03:51:12.641Z,103128.66
2023-02-08T03:53:44.281Z,103122.47
2023-02-08T03:56:17.412Z,103120.69
2023-02-08T03:58:50.834Z,103111.88
2023-02-08T04:01:25.464Z,103113.66
2023-02-08T04:03:56.448Z,103112.81
2023-02-08T04:06:26.253Z,103113.81
2023-02-08T04:08:54.464Z,103118.22
2023-02-08T04:11:22.809Z,103117.38
2023-02-08T04:13:50.798Z,103113.94
2023-02-08T04:16:18.775Z,103107.81
2023-02-08T04:18:46.809Z,103107.00
2023-02-08T04:21:14.933Z,103110.56
2023-02-08T04:23:44.492Z,103107.06
2023-02-08T04:26:12.576Z,103096.56
2023-02-08T04:28:40.749Z,103100.94
2023-02-08T04:31:08.957Z,103089.53
2023-02-08T04:33:37.095Z,103086.84
2023-02-08T04:36:05.744Z,103085.97
2023-02-08T04:38:33.757Z,103089.50
2023-02-08T04:41:03.270Z,103083.34
2023-02-08T04:43:31.442Z,103082.50
2023-02-08T04:45:59.782Z,103085.19
2023-02-08T04:48:27.717Z,103083.47
2023-02-08T04:50:57.359Z,103084.41
2023-02-08T04:53:25.844Z,103074.72
2023-02-08T04:55:54.071Z,103065.09
2023-02-08T04:58:24.729Z,103078.28
2023-02-08T05:00:53.132Z,103068.56
2023-02-08T05:03:21.457Z,103062.44
2023-02-08T05:05:58.248Z,103059.88
2023-02-08T05:08:26.656Z,103066.91
2023-02-08T05:10:54.764Z,103064.31
2023-02-08T05:13:24.318Z,103067.03
2023-02-08T05:15:52.369Z,103063.53
2023-02-08T05:18:20.585Z,103068.00
2023-02-08T05:20:55.860Z,103068.91
2023-02-08T05:23:23.987Z,103057.44
2023-02-08T05:25:52.144Z,103066.25
2023-02-08T05:28:20.393Z,103071.50
2023-02-08T05:30:50.523Z,103065.31
2023-02-08T05:33:18.759Z,103060.88
2023-02-08T05:35:47.020Z,103059.09
2023-02-08T05:38:15.504Z,103061.75
2023-02-08T05:40:43.462Z,103059.97
2023-02-08T05:43:11.741Z,103063.50
2023-02-08T05:45:39.905Z,103058.31
2023-02-08T05:48:09.421Z,103062.69
2023-02-08T05:50:37.758Z,103063.63
2023-02-08T05:53:05.872Z,103068.97
2023-02-08T05:55:33.887Z,103074.28
2023-02-08T05:58:02.152Z,103076.09
2023-02-08T06:00:30.179Z,103072.63
2023-02-08T06:02:59.272Z,103073.50
2023-02-08T06:05:28.791Z,103069.13
2023-02-08T06:07:57.052Z,103064.75
2023-02-08T06:10:25.179Z,103063.88
2023-02-08T06:12:53.244Z,103070.03
2023-02-08T06:15:21.360Z,103065.66
2023-02-08T06:17:49.527Z,103076.22
2023-02-08T06:20:18.014Z,103072.72
2023-02-08T06:22:47.644Z,103080.72
2023-02-08T06:25:15.640Z,103085.19
2023-02-08T06:27:43.857Z,103081.66
2023-02-08T06:30:12.932Z,103090.47
2023-02-08T06:32:40.999Z,103094.91
2023-02-08T06:35:09.864Z,103098.47
2023-02-08T06:37:38.008Z,103092.31
2023-02-08T06:40:09.102Z,103086.19
2023-02-08T06:42:37.365Z,103095.88
2023-02-08T06:45:06.055Z,103097.63
2023-02-08T06:47:34.048Z,103103.78
2023-02-08T06:50:01.984Z,103088.78
2023-02-08T06:52:30.060Z,103091.44
2023-02-08T06:54:58.110Z,103107.22
2023-02-08T06:57:27.780Z,103096.69
2023-02-08T06:59:55.798Z,103102.00
2023-02-08T07:02:24.089Z,103095.91
2023-02-08T07:04:52.309Z,103096.81
2023-02-08T07:07:20.588Z,103092.44
2023-02-08T07:09:48.780Z,103099.47
2023-02-08T07:12:17.276Z,103101.25
2023-02-08T07:14:46.903Z,103113.59
2023-02-08T07:17:15.003Z,103109.22
2023-02-08T07:19:42.974Z,103111.91
2023-02-08T07:22:10.932Z,103110.22
2023-02-08T07:24:40.363Z,103110.25
2023-02-08T07:27:10.542Z,103101.44
2023-02-08T07:29:39.386Z,103099.63
2023-02-08T07:32:09.474Z,103099.56
2023-02-08T07:34:40.803Z,103109.16
2023-02-08T07:37:09.061Z,103107.34
2023-02-08T07:39:37.117Z,103089.75
2023-02-08T07:42:06.363Z,103096.81
2023-02-08T07:44:35.629Z,103099.47
2023-02-08T07:47:03.693Z,103091.53
2023-02-08T07:49:33.548Z,103089.78
2023-02-08T07:52:03.018Z,103094.19
2023-02-08T07:54:31.213Z,103095.16
2023-02-08T07:57:01.198Z,103094.28
2023-02-08T07:59:30.537Z,103084.63
2023-02-08T08:01:58.614Z,103082.91
2023-02-08T08:04:26.712Z,103091.66
2023-02-08T08:06:56.301Z,103095.13
2023-02-08T08:09:24.443Z,103090.72
2023-02-08T08:11:52.796Z,103088.03
2023-02-08T08:14:21.069Z,103093.25
2023-02-08T08:16:49.175Z,103095.78
2023-02-08T08:19:17.291Z,103095.66
2023-02-08T08:21:45.293Z,103095.56
2023-02-08T08:24:14.977Z,103095.44
2023-02-08T08:26:43.042Z,103105.00
2023-02-08T08:29:11.063Z,103088.16
2023-02-08T08:31:39.201Z,103087.13
2023-02-08T08:34:07.469Z,103082.53
2023-02-08T08:36:35.541Z,103088.56
2023-02-08T08:39:03.869Z,103091.09
2023-02-08T08:41:33.723Z,103095.41
2023-02-08T08:44:02.248Z,103098.88
2023-02-08T08:46:30.342Z,103104.09
2023-02-08T08:48:59.197Z,103108.50
2023-02-08T08:51:27.477Z,103110.22
2023-02-08T08:53:55.640Z,103111.97
2023-02-08T08:56:23.764Z,103120.69
2023-02-08T08:58:53.323Z,103127.59
2023-02-08T09:01:21.608Z,103123.00
2023-02-08T09:03:50.177Z,103111.41
2023-02-08T09:06:18.837Z,103098.88
2023-02-08T09:08:47.165Z,103096.09
2023-02-08T09:11:17.230Z,103099.53
2023-02-08T09:13:45.428Z,103094.19
2023-02-08T09:16:16.657Z,103094.16
2023-02-08T09:18:45.622Z,103083.50
2023-02-08T09:21:15.584Z,103086.16
2023-02-08T09:23:44.211Z,103094.94
2023-02-08T09:26:14.681Z,103094.03
2023-02-08T09:28:43.729Z,103081.56
2023-02-08T09:31:13.446Z,103066.50
2023-02-08T09:33:42.979Z,103066.34
2023-02-08T09:36:11.646Z,103052.97
2023-02-08T09:38:40.599Z,103047.47
2023-02-08T09:41:24.669Z,103037.66
2023-02-08T09:44:01.882Z,103035.72
2023-02-08T09:46:33.763Z,103044.31
2023-02-08T09:49:06.074Z,103042.31
2023-02-08T09:51:39.045Z,103042.88
2023-02-08T09:54:10.230Z,103040.84
2023-02-08T09:56:41.984Z,103040.56
2023-02-08T09:59:17.810Z,103034.06
2023-02-08T10:01:47.771Z,103026.63
2023-02-08T10:04:26.996Z,103015.59
2023-02-08T10:06:55.118Z,103017.03
2023-02-08T10:09:27.569Z,103012.34
2023-02-08T10:12:07.945Z,103010.28
2023-02-08T10:14:48.091Z,103017.81
2023-02-08T10:17:39.630Z,103017.53
2023-02-08T10:20:20.014Z,103022.69
2023-02-08T10:22:58.583Z,103029.72
2023-02-08T10:25:46.554Z,103024.19
2023-02-08T10:28:31.739Z,103020.28
2023-02-08T10:31:11.018Z,103022.53
2023-02-08T10:33:49.251Z,103016.84
2023-02-08T10:36:22.216Z,103009.41
2023-02-08T10:38:55.021Z,103004.75
2023-02-08T10:41:27.194Z,103007.19
2023-02-08T10:44:02.504Z,103007.13
2023-02-08T10:46:36.932Z,103015.91
2023-02-08T10:49:09.401Z,103006.19
2023-02-08T10:51:39.201Z,103015.03
2023-02-08T10:54:07.415Z,103009.69
2023-02-08T10:56:45.628Z,103012.28
2023-02-08T10:59:20.077Z,103005.25
2023-02-08T11:01:50.377Z,103012.28
2023-02-08T11:04:19.261Z,103004.31
2023-02-08T11:06:50.587Z,103006.88
2023-02-08T11:09:24.790Z,103009.50
2023-02-08T11:11:54.323Z,103011.06
2023-02-08T11:14:35.028Z,103004.69
2023-02-08T11:17:28.864Z,103007.19
2023-02-08T11:19:57.660Z,102996.31
2023-02-08T11:22:31.280Z,102996.16
2023-02-08T11:25:02.075Z,102996.00
2023-02-08T11:27:34.919Z,102991.31
2023-02-08T11:30:23.497Z,102983.78
2023-02-08T11:33:18.512Z,102965.75
2023-02-08T11:35:59.793Z,102965.63
2023-02-08T11:38:30.278Z,102956.63
2023-02-08T11:41:00.702Z,102949.47
2023-02-08T11:43:31.245Z,102938.66
2023-02-08T11:46:01.058Z,102937.53
2023-02-08T11:48:39.406Z,102933.69
2023-02-08T11:51:08.087Z,102935.28
2023-02-08T11:53:40.879Z,102934.19
2023-02-08T11:56:19.501Z,102930.34
2023-02-08T11:59:02.506Z,102921.25
2023-02-08T12:01:33.566Z,102906.81
2023-02-08T12:04:05.713Z,102896.78
2023-02-08T12:07:02.212Z,102899.03
2023-02-08T12:10:00.332Z,102899.59
2023-02-08T12:12:41.443Z,102886.78
2023-02-08T12:15:19.710Z,102876.00
2023-02-08T12:18:08.486Z,102871.22
2023-02-08T12:20:44.306Z,102865.47
2023-02-08T12:23:36.483Z,102858.03
2023-02-08T12:26:17.020Z,102861.25
2023-02-08T12:28:59.194Z,102848.41
2023-02-08T12:31:39.322Z,102853.31
2023-02-08T12:34:16.721Z,102847.63
2023-02-08T12:37:32.279Z,102849.78
2023-02-08T12:40:31.927Z,102834.25
2023-02-08T12:43:14.054Z,102837.47
2023-02-08T12:45:57.151Z,102843.19
2023-02-08T12:48:43.490Z,102843.50
2023-02-08T12:51:21.731Z,102852.06
2023-02-08T12:53:55.170Z,102840.94
2023-02-08T12:56:26.939Z,102843.41
2023-02-08T12:59:11.860Z,102831.56
2023-02-08T13:01:45.342Z,102824.75
2023-02-08T13:04:16.896Z,102822.50
2023-02-08T13:06:49.588Z,102822.84
2023-02-08T13:09:23.581Z,102821.22
2023-02-08T13:11:56.611Z,102808.38
2023-02-08T13:14:33.288Z,102814.75
2023-02-08T13:17:11.559Z,102803.84
2023-02-08T13:19:59.813Z,102795.28
2023-02-08T13:22:28.868Z,102782.13
2023-02-08T13:25:07.168Z,102774.38
2023-02-08T13:27:36.097Z,102782.38
2023-02-08T13:30:07.794Z,102781.72
2023-02-08T13:32:42.762Z,102785.53
2023-02-08T13:35:16.654Z,102796.13
2023-02-08T13:37:53.153Z,102795.78
2023-02-08T13:40:28.352Z,102794.75
2023-02-08T13:43:01.695Z,102786.34
2023-02-08T13:45:34.550Z,102782.66
2023-02-08T13:48:04.087Z,102775.31
2023-02-08T13:50:50.844Z,102781.00
2023-02-08T13:53:20.594Z,102773.44
2023-02-08T13:55:57.888Z,102769.38
2023-02-08T13:58:45.018Z,102765.66
2023-02-08T14:01:33.511Z,102765.06
2023-02-08T14:04:34.176Z,102759.31
2023-02-08T14:07:22.068Z,102749.03
2023-02-08T14:10:03.375Z,102752.31
2023-02-08T14:12:38.979Z,102747.09
2023-02-08T14:15:09.526Z,102748.91
2023-02-08T14:17:43.733Z,102749.28
2023-02-08T14:20:20.489Z,102743.25
2023-02-08T14:22:51.989Z,102735.56
2023-02-08T14:25:22.505Z,102735.09
2023-02-08T14:27:54.645Z,102741.72
2023-02-08T14:30:27.931Z,102736.53
2023-02-08T14:33:16.473Z,102739.34
2023-02-08T14:35:53.566Z,102741.63
2023-02-08T14:38:52.556Z,102740.28
2023-02-08T14:41:47.337Z,102733.16
2023-02-08T14:44:55.003Z,102728.19
2023-02-08T14:48:01.761Z,102725.88
2023-02-08T14:50:35.188Z,102729.50
2023-02-08T14:53:07.947Z,102724.41
2023-02-08T14:55:44.397Z,102724.34
2023-02-08T14:58:20.970Z,102724.88
2023-02-08T15:00:53.251Z,102715.41
2023-02-08T15:03:21.830Z,102712.97
2023-02-08T15:06:22.159Z,102718.34
2023-02-08T15:08:54.837Z,102727.81
2023-02-08T15:11:25.765Z,102725.09
2023-02-08T15:13:58.287Z,102726.34
2023-02-08T15:16:37.825Z,102725.34
2023-02-08T15:19:08.937Z,102722.38
2023-02-08T15:21:39.025Z,102716.59
2023-02-08T15:24:16.466Z,102717.16
2023-02-08T15:26:48.907Z,102715.94
2023-02-08T15:29:27.920Z,102727.25
2023-02-08T15:31:58.268Z,102721.56
2023-02-08T15:34:27.670Z,102724.81
2023-02-08T15:36:58.286Z,102732.44
2023-02-08T15:39:34.043Z,102727.72
2023-02-08T15:42:03.447Z,102728.66
2023-02-08T15:44:34.523Z,102723.72
2023-02-08T15:47:05.771Z,102717.72
2023-02-08T15:49:38.094Z,102719.28
2023-02-08T15:52:09.129Z,102727.69
2023-02-08T15:54:37.371Z,102717.38
2023-02-08T15:57:09.234Z,102726.38
2023-02-08T15:59:41.274Z,102729.19
2023-02-08T16:02:23.350Z,102721.06
2023-02-08T16:04:51.713Z,102722.09
2023-02-08T16:07:27.830Z,102719.41
2023-02-08T16:09:57.437Z,102712.16
2023-02-08T16:12:27.903Z,102718.56
2023-02-08T16:14:57.527Z,102715.63
2023-02-08T16:17:38.706Z,102706.13
2023-02-08T16:20:23.215Z,102698.84
2023-02-08T16:23:01.212Z,102712.38
2023-02-08T16:25:39.082Z,102703.44
2023-02-08T16:28:07.656Z,102704.53
2023-02-08T16:30:36.024Z,102698.22
2023-02-08T16:33:09.980Z,102700.53
2023-02-08T16:35:40.506Z,102687.41
2023-02-08T16:38:11.755Z,102691.13
2023-02-08T16:40:50.093Z,102685.16
2023-02-08T16:43:28.437Z,102683.53
2023-02-08T16:46:21.456Z,102679.19
2023-02-08T16:48:52.269Z,102671.25
2023-02-08T16:51:23.569Z,102660.41
2023-02-08T16:53:56.842Z,102657.06
2023-02-08T16:56:26.080Z,102653.47
2023-02-08T16:58:54.901Z,102659.69
2023-02-08T17:01:25.029Z,102649.56
2023-02-08T17:03:53.886Z,102645.47
2023-02-08T17:06:29.256Z,102648.22
2023-02-08T17:09:00.125Z,102649.66
2023-02-08T17:11:29.217Z,102657.13
2023-02-08T17:13:58.453Z,102655.97
2023-02-08T17:16:30.282Z,102662.41
2023-02-08T17:18:58.600Z,102660.28
2023-02-08T17:21:27.399Z,102654.44
2023-02-08T17:23:55.516Z,102652.22
2023-02-08T17:26:27.948Z,102639.25
2023-02-08T17:28:56.447Z,102644.03
2023-02-08T17:31:24.983Z,102634.38
2023-02-08T17:33:53.299Z,102631.78
2023-02-08T17:36:21.440Z,102635.31
2023-02-08T17:38:49.614Z,102655.75
2023-02-08T17:41:19.987Z,102666.34
2023-02-08T17:43:52.364Z,102668.16
2023-02-08T17:46:22.645Z,102679.81
2023-02-08T17:48:50.803Z,102671.06
2023-02-08T17:51:21.512Z,102670.84
2023-02-08T17:53:50.421Z,102674.06
2023-02-08T17:56:20.923Z,102676.72
2023-02-08T17:58:53.692Z,102682.75
2023-02-08T18:01:25.512Z,102677.31
2023-02-08T18:03:54.857Z,102675.38
2023-02-08T18:06:25.082Z,102680.63
2023-02-08T18:08:53.343Z,102680.41
2023-02-08T18:11:23.663Z,102675.91
2023-02-08T18:13:54.806Z,102671.28
2023-02-08T18:16:24.966Z,102673.00
2023-02-08T18:18:55.619Z,102668.53
2023-02-08T18:21:25.703Z,102675.59
2023-02-08T18:23:55.651Z,102669.25
2023-02-08T18:26:25.964Z,102660.38
2023-02-08T18:28:55.744Z,102667.66
2023-02-08T18:31:25.440Z,102669.41
2023-02-08T18:33:53.854Z,102677.41
2023-02-08T18:36:24.303Z,102673.78
2023-02-08T18:38:55.832Z,102673.66
2023-02-08T18:41:27.097Z,102662.94
2023-02-08T18:43:58.908Z,102663.72
2023-02-08T18:46:29.064Z,102661.00
2023-02-08T18:48:59.111Z,102665.31
2023-02-08T18:51:28.461Z,102659.81
2023-02-08T18:53:57.192Z,102657.13
2023-02-08T18:56:28.265Z,102663.25
2023-02-08T18:59:00.727Z,102657.78
2023-02-08T19:01:28.949Z,102664.06
2023-02-08T19:03:57.996Z,102652.41
2023-02-08T19:06:28.788Z,102650.69
2023-02-08T19:08:58.965Z,102645.34
2023-02-08T19:11:31.068Z,102652.41
2023-02-08T19:14:02.829Z,102641.88
2023-02-08T19:16:31.960Z,102639.19
2023-02-08T19:19:01.412Z,102639.28
2023-02-08T19:21:31.558Z,102635.66
2023-02-08T19:24:02.388Z,102639.19
2023-02-08T19:26:33.355Z,102643.59
2023-02-08T19:29:06.775Z,102637.22
2023-02-08T19:31:36.289Z,102645.16
2023-02-08T19:34:05.603Z,102648.66
2023-02-08T19:36:37.274Z,102653.19
2023-02-08T19:39:06.962Z,102655.00
2023-02-08T19:41:37.271Z,102645.16
2023-02-08T19:44:10.384Z,102632.75
2023-02-08T19:46:39.969Z,102629.97
2023-02-08T19:49:08.962Z,102637.16
2023-02-08T19:51:37.368Z,102624.81
2023-02-08T19:54:08.687Z,102632.66
2023-02-08T19:56:37.774Z,102627.41
2023-02-08T19:59:09.286Z,102626.53
2023-02-08T20:01:37.443Z,102622.19
2023-02-08T20:04:06.400Z,102633.78
2023-02-08T20:06:41.445Z,102627.72
2023-02-08T20:09:13.351Z,102631.34
2023-02-08T20:11:56.510Z,102625.09
2023-02-08T20:14:29.217Z,102626.16
2023-02-08T20:16:57.659Z,102629.78
2023-02-08T20:19:26.215Z,102630.41
2023-02-08T20:21:54.548Z,102623.31
2023-02-08T20:24:25.700Z,102623.31
2023-02-08T20:27:01.563Z,102631.25
2023-02-08T20:29:31.687Z,102630.31
2023-02-08T20:31:59.894Z,102636.53
2023-02-08T20:34:28.200Z,102633.78
2023-02-08T20:37:11.618Z,102634.66
2023-02-08T20:39:39.852Z,102652.19
2023-02-08T20:42:08.204Z,102647.69
2023-02-08T20:44:37.954Z,102650.22
2023-02-08T20:47:06.239Z,102643.06
2023-02-08T20:49:35.397Z,102642.97
2023-02-08T20:52:04.148Z,102630.56
2023-02-08T20:54:32.854Z,102628.81
2023-02-08T20:57:06.576Z,102632.28
2023-02-08T20:59:35.478Z,102635.97
2023-02-08T21:02:12.485Z,102630.69
2023-02-08T21:04:41.632Z,102637.94
2023-02-08T21:07:09.776Z,102640.63
2023-02-08T21:09:43.567Z,102637.09
2023-02-08T21:12:15.312Z,102634.41
2023-02-08T21:14:47.482Z,102634.47
2023-02-08T21:17:20.353Z,102634.41
2023-02-08T21:20:01.919Z,102629.13
2023-02-08T21:22:33.463Z,102621.19
2023-02-08T21:25:08.570Z,102623.09
2023-02-08T21:27:41.582Z,102627.50
2023-02-08T21:30:13.177Z,102632.84
2023-02-08T21:32:49.622Z,102639.03
2023-02-08T21:35:26.843Z,102619.38
2023-02-08T21:38:02.569Z,102624.63
2023-02-08T21:40:34.458Z,102625.34
2023-02-08T21:43:27.016Z,102621.91
2023-02-08T21:46:09.036Z,102622.75
2023-02-08T21:49:04.320Z,102618.38
2023-02-08T21:51:58.365Z,102610.50
2023-02-08T21:54:55.379Z,102607.03
2023-02-08T21:57:43.488Z,102609.78
2023-02-08T22:00:20.064Z,102609.94
2023-02-08T22:02:52.368Z,102602.63
2023-02-08T22:05:23.558Z,102597.44
2023-02-08T22:07:54.292Z,102601.22
2023-02-08T22:10:25.963Z,102601.13
2023-02-08T22:12:55.471Z,102601.44
2023-02-08T22:15:27.735Z,102598.25
2023-02-08T22:17:57.946Z,102595.94
2023-02-08T22:20:31.605Z,102589.19
2023-02-08T22:22:59.840Z,102592.16
2023-02-08T22:25:29.204Z,102592.47
2023-02-08T22:27:57.996Z,102587.34
2023-02-08T22:30:26.276Z,102585.09
2023-02-08T22:32:54.354Z,102597.78
2023-02-08T22:35:23.106Z,102604.06
2023-02-08T22:37:52.615Z,102595.38
2023-02-08T22:40:21.613Z,102592.84
2023-02-08T22:42:49.794Z,102597.13
2023-02-08T22:45:17.916Z,102594.34
2023-02-08T22:47:46.302Z,102589.94
2023-02-08T22:50:14.610Z,102584.59
2023-02-08T22:52:42.831Z,102579.25
2023-02-08T22:55:13.046Z,102582.06
2023-02-08T22:57:43.538Z,102594.63
2023-02-08T23:00:14.588Z,102586.84
2023-02-08T23:02:42.623Z,102593.19
2023-02-08T23:05:10.694Z,102588.03
2023-02-08T23:07:40.482Z,102589.84
2023-02-08T23:10:09.691Z,102600.63
2023-02-08T23:12:39.260Z,102601.69
2023-02-08T23:15:08.159Z,102608.94
2023-02-08T23:17:37.037Z,102602.09
2023-02-08T23:20:05.310Z,102576.53
2023-02-08T23:22:33.360Z,102586.28
2023-02-08T23:25:01.427Z,102581.16
2023-02-08T23:27:29.537Z,102587.50
2023-02-08T23:30:00.667Z,102589.53
2023-02-08T23:32:28.682Z,102593.34
2023-02-08T23:34:57.429Z,102589.97
2023-02-08T23:37:25.518Z,102576.69
2023-02-08T23:39:53.677Z,102566.97
2023-02-08T23:42:27.192Z,102563.47
2023-02-08T23:44:56.450Z,102561.69
2023-02-08T23:47:27.509Z,102579.59
2023-02-08T23:49:56.196Z,102588.56
2023-02-08T23:52:25.189Z,102583.53
2023-02-08T23:54:53.540Z,102589.16
2023-02-08T23:57:21.679Z,102586.78
2023-02-08T23:59:50.670Z,102572.59
